Time;durP1;ratioP1;P1;durP2;ratioP2;P2;SDS_P1;SDS_P2;PMS_P1;PMS_P2;Temp;Humidity;BMP_temperature;BMP_pressure;BME280_temperature;BME280_humidity;BME280_pressure;Samples;Min_cycle;Max_cycle;Signal;HPM_P1;HPM_P2
2022/09/10 07:19:13;;;;;;;11.23;1.85;;;;;;;40.35;21.83;100651.63;5384070;24;20052;-80
2022/09/10 07:22:02;;;;;;;15.27;1.23;;;;;;;40.08;22.13;100645.47;4769423;29;20059;-79
2022/09/10 07:24:50;;;;;;;17.55;1.13;;;;;;;40.82;21.46;100647.53;4759102;29;20056;-79
2022/09/10 07:27:49;;;;;;;1.88;0.90;;;;;;;40.55;21.25;100651.28;4760113;30;20047;-79
2022/09/10 07:30:34;;;;;;;3.10;0.88;;;;;;;40.07;21.50;100643.16;4766281;30;20051;-78
2022/09/10 07:33:21;;;;;;;5.93;1.25;;;;;;;41.21;20.50;100647.28;4787458;24;20058;-76
2022/09/10 07:36:07;;;;;;;9.65;1.02;;;;;;;41.94;19.57;100650.31;4753354;30;20056;-77
2022/09/10 07:38:53;;;;;;;5.30;1.02;;;;;;;42.92;18.17;100651.72;4744679;30;20060;-76
2022/09/10 07:41:38;;;;;;;2.42;1.00;;;;;;;39.24;19.98;100652.50;4752516;30;20051;-79
2022/09/10 07:44:26;;;;;;;1.35;0.63;;;;;;;40.99;19.57;100661.72;4746892;30;20055;-79
2022/09/10 07:47:11;;;;;;;2.83;0.80;;;;;;;37.97;22.33;100654.28;4742124;30;20055;-77
2022/09/10 07:49:56;;;;;;;5.05;0.68;;;;;;;39.89;21.64;100655.09;4739451;30;20425;-76
2022/09/10 07:52:41;;;;;;;5.70;0.90;;;;;;;41.09;19.73;100662.97;4732644;30;20048;-79
2022/09/10 07:55:29;;;;;;;3.92;0.70;;;;;;;33.33;29.58;100649.16;4744581;30;20543;-82
2022/09/10 07:58:14;;;;;;;3.13;0.70;;;;;;;29.33;35.96;100622.97;4734428;30;20071;-79
2022/09/10 08:01:08;;;;;;;1.30;0.57;;;;;;;28.41;38.77;100633.88;4744030;30;20075;-78
2022/09/10 08:03:57;;;;;;;2.83;1.00;;;;;;;27.72;42.00;100632.38;4735122;30;20527;-76
2022/09/10 08:06:44;;;;;;;6.03;0.73;;;;;;;26.38;45.58;100636.59;4735069;30;20059;-77
2022/09/10 08:09:29;;;;;;;3.35;0.73;;;;;;;26.08;45.51;100633.91;4737080;30;20059;-81
2022/09/10 08:12:15;;;;;;;0.90;0.65;;;;;;;25.61;46.63;100638.59;4739898;30;20056;-77
2022/09/10 08:14:59;;;;;;;1.60;0.70;;;;;;;25.43;47.44;100627.69;4734279;30;20536;-79
2022/09/10 08:17:46;;;;;;;1.55;0.65;;;;;;;25.17;45.44;100625.63;4733295;30;20082;-78
2022/09/10 08:20:32;;;;;;;2.45;0.60;;;;;;;25.18;49.96;100634.78;4738385;30;20051;-76
2022/09/10 08:23:19;;;;;;;1.23;0.50;;;;;;;25.18;50.33;100637.56;4737930;30;20051;-78
2022/09/10 08:26:07;;;;;;;1.98;0.40;;;;;;;24.86;48.26;100644.25;4734794;30;20055;-79
2022/09/10 08:28:56;;;;;;;0.73;0.50;;;;;;;24.96;50.96;100643.38;4735825;30;20059;-78
2022/09/10 08:31:43;;;;;;;3.45;0.50;;;;;;;24.92;50.92;100641.84;4737240;30;20528;-78
2022/09/10 08:34:35;;;;;;;1.65;0.50;;;;;;;24.99;50.13;100642.53;4736254;30;20449;-76
2022/09/10 08:37:24;;;;;;;2.05;0.70;;;;;;;24.58;52.04;100645.31;4737198;30;20065;-76
2022/09/10 08:40:11;;;;;;;3.53;0.55;;;;;;;24.48;52.83;100651.78;4736846;30;20064;-77
2022/09/10 08:42:55;;;;;;;1.38;0.63;;;;;;;24.61;50.88;100647.28;4737218;30;20402;-79
2022/09/10 08:45:47;;;;;;;1.60;0.68;;;;;;;24.50;48.03;100649.38;4737429;30;20064;-79
2022/09/10 08:48:38;;;;;;;1.02;0.50;;;;;;;24.80;51.39;100654.25;4739224;30;20067;-78
2022/09/10 08:51:28;;;;;;;2.65;0.60;;;;;;;25.00;50.77;100660.03;4739988;30;20405;-78
2022/09/10 08:54:26;;;;;;;3.25;0.90;;;;;;;25.25;48.12;100660.50;4739498;30;20048;-79
2022/09/10 08:57:24;;;;;;;0.40;0.40;;;;;;;25.23;47.12;100662.94;4741791;30;20450;-79
2022/09/10 09:00:13;;;;;;;2.05;0.70;;;;;;;25.04;48.69;100653.22;4743207;30;20048;-78
2022/09/10 09:03:24;;;;;;;1.17;0.60;;;;;;;25.06;49.91;100664.72;4742188;30;20516;-76
2022/09/10 09:06:36;;;;;;;4.72;0.55;;;;;;;24.89;49.03;100653.81;4742474;30;20059;-78
2022/09/10 09:09:22;;;;;;;1.65;0.57;;;;;;;24.87;50.41;100650.59;4740793;30;20063;-79
2022/09/10 09:12:27;;;;;;;0.98;0.50;;;;;;;28.58;38.38;100659.84;4743996;30;20445;-79
2022/09/10 09:15:29;;;;;;;5.38;0.70;;;;;;;33.42;30.61;100662.50;4745870;30;20059;-79
2022/09/10 09:18:30;;;;;;;2.75;0.50;;;;;;;35.35;27.93;100667.28;4744034;30;20436;-77
2022/09/10 09:21:19;;;;;;;0.47;0.30;;;;;;;36.29;25.02;100670.06;4739753;30;20550;-77
2022/09/10 09:24:21;;;;;;;1.15;0.55;;;;;;;40.58;21.33;100682.38;4739933;30;20420;-78
2022/09/10 09:27:15;;;;;;;5.07;0.68;;;;;;;37.80;22.54;100681.78;4742358;30;20059;-77
2022/09/10 09:30:12;;;;;;;0.47;0.30;;;;;;;33.59;27.36;100666.50;4739273;30;20076;-78
2022/09/10 09:33:11;;;;;;;2.15;0.38;;;;;;;32.69;28.69;100665.34;4742652;30;20413;-79
2022/09/10 09:36:03;;;;;;;0.63;0.20;;;;;;;34.01;27.09;100648.78;4739490;30;20416;-78
2022/09/10 09:38:51;;;;;;;3.22;0.38;;;;;;;35.35;25.91;100660.84;4741895;30;20052;-79
2022/09/10 09:41:48;;;;;;;1.20;0.32;;;;;;;30.49;32.95;100656.16;4737077;30;20056;-80
2022/09/10 09:45:11;;;;;;;0.43;0.30;;;;;;;29.75;34.26;100643.28;4736206;30;20544;-81
2022/09/10 09:47:57;;;;;;;0.77;0.30;;;;;;;29.55;35.96;100639.91;4736956;30;20516;-80
2022/09/10 09:50:45;;;;;;;1.65;0.30;;;;;;;30.03;34.09;100636.00;4737506;30;20056;-81
2022/09/10 09:53:30;;;;;;;2.38;0.30;;;;;;;30.98;32.36;100631.91;4740139;30;20044;-79
2022/09/10 09:56:23;;;;;;;0.20;0.20;;;;;;;30.09;35.04;100637.00;4738687;30;20409;-80
2022/09/10 09:59:23;;;;;;;2.13;0.10;;;;;;;30.25;35.47;100633.28;4739137;30;20063;-81
2022/09/10 10:02:14;;;;;;;1.02;0.70;;;;;;;29.01;36.42;100625.09;4739210;30;20336;-80
2022/09/10 10:05:05;;;;;;;1.48;0.40;;;;;;;31.34;30.82;100628.56;4736454;30;20044;-79
2022/09/10 10:07:51;;;;;;;2.50;0.40;;;;;;;28.44;36.32;100633.00;4734754;30;20052;-83
2022/09/10 10:10:36;;;;;;;1.05;0.40;;;;;;;29.75;34.56;100626.47;4737075;30;20052;-81
2022/09/10 10:13:22;;;;;;;1.60;0.40;;;;;;;27.74;36.74;100621.53;4737898;30;20059;-79
2022/09/10 10:16:16;;;;;;;2.50;0.50;;;;;;;30.35;33.60;100620.13;4745105;30;20068;-81
2022/09/10 10:19:01;;;;;;;3.63;0.50;;;;;;;32.48;28.73;100630.41;4740563;30;20440;-81
2022/09/10 10:21:46;;;;;;;0.50;0.30;;;;;;;33.96;28.45;100619.19;4737262;30;20076;-80
2022/09/10 10:24:32;;;;;;;1.85;0.32;;;;;;;34.70;25.91;100617.44;4735215;30;20057;-79
2022/09/10 10:27:19;;;;;;;0.80;0.50;;;;;;;37.75;22.71;100627.78;4755503;30;20416;-80
2022/09/10 10:30:21;;;;;;;2.28;0.43;;;;;;;34.38;26.30;100607.81;4753934;30;20063;-80
2022/09/10 10:33:16;;;;;;;2.33;0.40;;;;;;;35.08;24.84;100616.63;4753947;30;20051;-80
2022/09/10 10:36:18;;;;;;;0.98;0.50;;;;;;;39.02;21.15;100618.31;4754888;30;20055;-80
2022/09/10 10:39:14;;;;;;;0.82;0.50;;;;;;;40.66;17.98;100617.03;4747409;30;20052;-79
2022/09/10 10:42:34;;;;;;;2.65;0.30;;;;;;;37.31;21.45;100609.13;4755309;30;20059;-79
2022/09/10 10:45:57;;;;;;;1.50;0.40;;;;;;;36.72;23.53;100594.63;4752237;30;20523;-79
2022/09/10 10:49:01;;;;;;;0.85;0.20;;;;;;;36.43;21.95;100590.66;4752711;30;20064;-79
2022/09/10 10:52:04;;;;;;;2.30;0.50;;;;;;;37.78;20.16;100595.56;4749301;30;20063;-80
2022/09/10 10:55:14;;;;;;;0.22;0.20;;;;;;;38.09;20.45;100587.78;4735539;30;20397;-78
2022/09/10 10:58:15;;;;;;;2.92;0.40;;;;;;;38.47;19.67;100585.59;4738616;30;20126;-80
2022/09/10 11:01:10;;;;;;;1.02;0.13;;;;;;;40.69;17.67;100589.53;4738436;30;20056;-79
2022/09/10 11:04:18;;;;;;;0.17;0.17;;;;;;;38.20;19.22;100589.09;4732620;30;20287;-79
2022/09/10 11:07:15;;;;;;;1.20;0.32;;;;;;;34.87;22.53;100578.19;4738940;30;20055;-79
2022/09/10 11:10:02;;;;;;;0.85;0.20;;;;;;;39.14;18.53;100580.06;4734759;30;20055;-80
2022/09/10 11:13:20;;;;;;;1.35;0.20;;;;;;;41.85;15.45;100596.38;4734758;30;20520;-78
2022/09/10 11:16:13;;;;;;;0.50;0.30;;;;;;;46.15;13.78;100604.59;4749696;30;20530;-80
2022/09/10 11:19:20;;;;;;;2.03;0.32;;;;;;;46.93;12.79;100604.34;4753451;30;20048;-82
2022/09/10 11:22:14;;;;;;;2.08;0.35;;;;;;;43.85;15.35;100592.59;4741592;30;20060;-84
2022/09/10 11:25:36;;;;;;;1.15;0.32;;;;;;;42.42;16.25;100582.97;4743911;30;20063;-83
2022/09/10 11:28:28;;;;;;;4.30;0.28;;;;;;;38.24;20.71;100562.00;4739296;30;20104;-82
2022/09/10 11:31:29;;;;;;;2.40;0.30;;;;;;;39.27;20.06;100566.06;4733254;30;20055;-80
2022/09/10 11:34:27;;;;;;;0.95;0.10;;;;;;;39.27;18.19;100558.31;4746680;30;20059;-81
2022/09/10 11:37:27;;;;;;;1.00;0.25;;;;;;;40.97;17.51;100558.72;4735651;30;20051;-82
2022/09/10 11:40:20;;;;;;;0.52;0.28;;;;;;;40.41;17.55;100559.06;4726383;30;20071;-84
2022/09/10 11:43:11;;;;;;;2.47;0.38;;;;;;;45.60;14.14;100569.56;4735607;30;20051;-82
2022/09/10 11:46:01;;;;;;;1.77;0.25;;;;;;;41.55;16.53;100555.66;4737790;30;20067;-86
2022/09/10 11:49:00;;;;;;;3.05;0.20;;;;;;;37.51;19.65;100543.75;4736835;30;20052;-81
2022/09/10 11:51:46;;;;;;;4.38;0.30;;;;;;;40.56;17.59;100542.41;4733075;30;20055;-80
2022/09/10 11:54:34;;;;;;;1.35;0.28;;;;;;;40.53;16.81;100542.69;4739473;30;20062;-78
2022/09/10 11:58:00;;;;;;;2.72;0.30;;;;;;;41.76;15.88;100551.78;4740184;30;20055;-79
2022/09/10 12:00:58;;;;;;;1.08;0.28;;;;;;;43.89;14.36;100548.00;4734328;30;20059;-78
2022/09/10 12:04:04;;;;;;;0.40;0.20;;;;;;;45.03;13.96;100542.84;4736934;30;20065;-80
2022/09/10 12:07:34;;;;;;;0.43;0.28;;;;;;;44.47;14.90;100541.28;4734425;30;20059;-82
2022/09/10 12:10:31;;;;;;;2.65;0.60;;;;;;;41.71;15.98;100531.84;4731059;30;20052;-80
2022/09/10 12:13:16;;;;;;;1.52;0.77;;;;;;;45.14;13.34;100525.31;4732179;30;20051;-80
2022/09/10 12:16:14;;;;;;;1.15;0.70;;;;;;;43.78;15.12;100516.69;4738004;30;20069;-81
2022/09/10 12:19:03;;;;;;;1.45;0.15;;;;;;;44.51;14.43;100510.13;4740245;30;20075;-82
2022/09/10 12:21:52;;;;;;;1.25;0.40;;;;;;;41.20;16.23;100511.56;4733890;30;20492;-79
2022/09/10 12:24:38;;;;;;;7.75;1.00;;;;;;;44.61;14.83;100501.81;4733773;30;20056;-79
2022/09/10 12:27:49;;;;;;;0.65;0.25;;;;;;;48.47;12.04;100515.63;4737821;30;20056;-78
2022/09/10 12:30:38;;;;;;;2.75;0.43;;;;;;;41.83;15.83;100504.69;4737100;30;20180;-79
2022/09/10 12:33:26;;;;;;;1.73;0.25;;;;;;;44.04;14.48;100504.44;4737038;30;20047;-80
2022/09/10 12:36:33;;;;;;;1.00;0.30;;;;;;;44.89;14.72;100504.03;4741307;30;20055;-78
2022/09/10 12:39:24;;;;;;;0.57;0.20;;;;;;;43.87;13.40;100490.47;4736734;30;20059;-78
2022/09/10 12:42:31;;;;;;;2.92;0.32;;;;;;;43.81;13.76;100486.91;4733268;30;20095;-81
2022/09/10 12:45:54;;;;;;;3.78;1.27;;;;;;;46.41;13.15;100493.47;4750572;30;20067;-78
2022/09/10 12:48:47;;;;;;;2.43;0.20;;;;;;;47.00;12.61;100489.13;4734951;30;20051;-78
2022/09/10 12:51:50;;;;;;;2.05;1.00;;;;;;;47.45;10.93;100487.56;4739476;30;20052;-77
2022/09/10 12:55:10;;;;;;;0.70;0.20;;;;;;;48.34;11.25;100481.25;4732962;30;20181;-82
2022/09/10 12:58:17;;;;;;;3.35;0.32;;;;;;;46.21;13.37;100483.63;4743308;30;20051;-78
2022/09/10 13:01:15;;;;;;;1.10;0.30;;;;;;;45.28;14.03;100483.69;4731315;30;20059;-79
2022/09/10 13:04:01;;;;;;;4.13;0.40;;;;;;;45.61;13.69;100482.00;4740004;30;20056;-83
2022/09/10 13:06:49;;;;;;;3.90;0.75;;;;;;;46.94;12.23;100479.91;4737379;30;20056;-79
2022/09/10 13:09:38;;;;;;;1.17;0.45;;;;;;;47.11;10.83;100476.47;4734459;30;20043;-78
2022/09/10 13:12:25;;;;;;;0.20;0.10;;;;;;;47.42;10.49;100466.44;4733908;30;20059;-78
2022/09/10 13:15:22;;;;;;;1.13;0.20;;;;;;;39.46;16.94;100447.56;4730888;30;20056;-81
2022/09/10 13:18:07;;;;;;;2.00;0.40;;;;;;;41.32;16.82;100453.06;4730710;30;20063;-79
2022/09/10 13:20:52;;;;;;;0.55;0.30;;;;;;;38.72;18.38;100448.16;4732286;30;20055;-79
2022/09/10 13:23:46;;;;;;;1.38;0.32;;;;;;;41.55;16.39;100447.13;4731641;30;20056;-79
2022/09/10 13:26:32;;;;;;;0.10;0.10;;;;;;;39.75;18.27;100440.47;4731038;30;20409;-78
2022/09/10 13:29:35;;;;;;;0.60;0.17;;;;;;;44.64;14.61;100458.44;4731648;30;20060;-78
2022/09/10 13:32:33;;;;;;;2.67;0.50;;;;;;;44.23;14.77;100450.56;4732138;30;20051;-80
2022/09/10 13:35:21;;;;;;;1.13;0.40;;;;;;;44.19;14.22;100449.34;4745182;24;20455;-75
2022/09/10 13:38:36;;;;;;;2.17;0.50;;;;;;;42.05;16.15;100435.84;4714586;30;20056;-78
2022/09/10 13:42:01;;;;;;;0.95;0.30;;;;;;;45.34;13.37;100452.69;4717364;30;20052;-77
2022/09/10 13:44:58;;;;;;;366.48;76.55;;;;;;;39.91;18.98;100421.78;4732245;30;21061;-80
2022/09/10 13:48:01;;;;;;;124.72;26.23;;;;;;;37.03;22.30;100409.56;4719646;30;20513;-80
2022/09/10 13:51:16;;;;;;;45.05;8.40;;;;;;;34.84;25.27;100410.41;4723448;30;20045;-81
2022/09/10 13:54:08;;;;;;;35.45;9.50;;;;;;;33.62;27.46;100405.25;4721961;30;20049;-81
2022/09/10 13:56:54;;;;;;;28.55;5.30;;;;;;;32.45;29.27;100394.06;4737838;30;20045;-81
2022/09/10 13:59:41;;;;;;;18.98;3.80;;;;;;;31.85;30.46;100394.72;4736106;30;20060;-81
2022/09/10 14:02:47;;;;;;;10.38;2.95;;;;;;;31.12;31.35;100391.03;4722412;30;20060;-81
2022/09/10 14:05:36;;;;;;;7.78;2.10;;;;;;;30.66;32.25;100390.06;4721101;30;20045;-81
2022/09/10 14:08:26;;;;;;;3.08;0.98;;;;;;;30.48;30.88;100377.47;4734893;30;20056;-80
2022/09/10 14:11:10;;;;;;;3.38;0.73;;;;;;;30.40;31.29;100384.59;4738684;30;20422;-81
2022/09/10 14:14:15;;;;;;;5.28;1.60;;;;;;;30.27;32.96;100383.13;4736801;30;20130;-81
2022/09/10 14:17:03;;;;;;;;;;;;;;;30.21;33.05;100380.13;4722847;30;20060;-81
2022/09/10 14:19:57;;;;;;;4.10;0.70;;;;;;;30.13;33.26;100370.38;4723053;30;20403;-81
2022/09/10 14:22:43;;;;;;;3.13;0.70;;;;;;;29.77;33.54;100359.66;4722779;30;20044;-81
2022/09/10 14:25:37;;;;;;;3.50;0.88;;;;;;;29.59;32.37;100353.91;4722739;30;20056;-81
2022/09/10 14:28:25;;;;;;;0.63;0.43;;;;;;;29.67;33.14;100360.81;4722906;30;20059;-81
2022/09/10 14:31:25;;;;;;;1.27;0.40;;;;;;;29.77;32.72;100357.63;4723588;30;20076;-81
2022/09/10 14:34:31;;;;;;;2.30;0.65;;;;;;;29.81;33.28;100353.94;4723240;30;20068;-81
2022/09/10 14:37:31;;;;;;;0.98;0.52;;;;;;;29.71;33.05;100351.03;4723079;30;20052;-81
2022/09/10 14:40:18;;;;;;;2.97;0.70;;;;;;;29.68;34.08;100343.56;4722151;30;20052;-81
2022/09/10 14:43:14;;;;;;;0.73;0.38;;;;;;;29.60;34.17;100347.06;4722883;30;20064;-81
2022/09/10 14:46:00;;;;;;;1.50;0.40;;;;;;;29.39;34.06;100337.41;4735669;30;20076;-81
2022/09/10 14:48:57;;;;;;;2.20;0.30;;;;;;;29.35;34.60;100342.34;4726129;30;20056;-81
2022/09/10 14:51:42;;;;;;;2.42;0.47;;;;;;;28.98;35.20;100337.56;4722036;30;20060;-81
2022/09/10 14:54:28;;;;;;;1.70;0.85;;;;;;;28.87;35.63;100337.91;4722118;30;20052;-81
2022/09/10 14:57:14;;;;;;;1.23;0.38;;;;;;;28.71;36.14;100336.00;4725070;30;20076;-81
2022/09/10 14:59:59;;;;;;;2.08;0.57;;;;;;;28.53;36.63;100330.19;4722512;30;20056;-81
2022/09/10 15:02:44;;;;;;;2.38;0.40;;;;;;;28.39;37.02;100328.59;4722563;30;20060;-80
2022/09/10 15:05:29;;;;;;;2.05;0.85;;;;;;;28.28;37.14;100325.34;4723123;30;20072;-82
2022/09/10 15:08:14;;;;;;;2.67;0.30;;;;;;;28.34;37.35;100328.38;4722619;30;20068;-81
2022/09/10 15:10:59;;;;;;;2.85;0.30;;;;;;;28.31;36.92;100329.25;4722729;30;20418;-81
2022/09/10 15:13:45;;;;;;;0.85;0.30;;;;;;;28.23;37.74;100333.50;4721440;30;20076;-81
2022/09/10 15:16:30;;;;;;;1.05;0.50;;;;;;;28.25;37.34;100322.66;4736851;30;20066;-81
2022/09/10 15:19:15;;;;;;;3.90;0.80;;;;;;;28.29;37.48;100326.91;4722634;30;20060;-81
2022/09/10 15:22:00;;;;;;;5.35;0.80;;;;;;;28.35;36.71;100321.53;4722274;30;20069;-81
2022/09/10 15:24:45;;;;;;;0.85;0.25;;;;;;;28.43;37.41;100331.31;4722279;30;20429;-81
2022/09/10 15:27:29;;;;;;;2.05;0.68;;;;;;;28.21;37.69;100328.34;4722854;30;20433;-81
2022/09/10 15:30:14;;;;;;;0.65;0.28;;;;;;;28.29;36.83;100329.69;4722463;30;20059;-81
2022/09/10 15:33:03;;;;;;;0.32;0.30;;;;;;;28.31;37.61;100326.47;4722634;30;20056;-81
2022/09/10 15:35:48;;;;;;;0.40;0.40;;;;;;;28.13;38.24;100331.81;4722218;30;20386;-81
2022/09/10 15:38:33;;;;;;;2.83;0.65;;;;;;;28.15;37.69;100329.34;4722538;30;20060;-81
2022/09/10 15:41:17;;;;;;;0.77;0.40;;;;;;;28.18;37.85;100340.44;4722273;30;20056;-81
2022/09/10 15:44:02;;;;;;;0.98;0.30;;;;;;;28.19;37.87;100330.03;4722043;30;20060;-80
2022/09/10 15:46:47;;;;;;;3.28;1.67;;;;;;;28.16;37.73;100336.50;4721787;30;20064;-81
2022/09/10 15:49:34;;;;;;;0.95;0.40;;;;;;;28.18;38.25;100334.84;4721829;30;20060;-81
2022/09/10 15:52:19;;;;;;;1.70;0.50;;;;;;;28.00;38.70;100328.94;4721592;30;20060;-81
2022/09/10 15:55:05;;;;;;;0.40;0.30;;;;;;;28.03;37.85;100331.66;4734730;30;20441;-80
2022/09/10 15:57:51;;;;;;;4.30;0.50;;;;;;;28.04;38.39;100335.22;4735433;30;20064;-80
2022/09/10 16:00:36;;;;;;;1.38;0.30;;;;;;;27.92;38.67;100333.19;4722557;30;20212;-81
2022/09/10 16:03:21;;;;;;;1.05;0.25;;;;;;;27.95;37.65;100344.25;4721352;30;20088;-81
2022/09/10 16:06:06;;;;;;;0.77;0.32;;;;;;;28.07;37.81;100343.53;4721834;30;20083;-81
2022/09/10 16:08:55;;;;;;;0.52;0.40;;;;;;;28.01;38.74;100331.31;4721707;30;20063;-80
2022/09/10 16:11:42;;;;;;;0.80;0.30;;;;;;;27.72;39.60;100329.78;4736995;30;20060;-81
2022/09/10 16:14:26;;;;;;;3.55;0.45;;;;;;;27.62;39.00;100331.63;4722446;30;20130;-81
2022/09/10 16:17:12;;;;;;;1.13;0.40;;;;;;;27.67;39.27;100339.47;4721351;30;20544;-80
2022/09/10 16:19:57;;;;;;;1.20;0.55;;;;;;;27.60;39.86;100340.44;4721055;30;20063;-80
2022/09/10 16:22:41;;;;;;;4.13;0.50;;;;;;;27.61;39.18;100335.66;4735892;30;20056;-80
2022/09/10 16:25:26;;;;;;;1.45;0.75;;;;;;;27.73;38.64;100343.31;4721552;30;20060;-80
2022/09/10 16:28:10;;;;;;;2.22;0.57;;;;;;;27.74;38.94;100338.47;4737441;30;20060;-80
2022/09/10 16:30:56;;;;;;;2.70;0.57;;;;;;;27.70;39.39;100337.81;4735625;30;20433;-80
2022/09/10 16:33:41;;;;;;;0.80;0.70;;;;;;;27.60;39.71;100334.88;4721850;30;20056;-80
2022/09/10 16:36:26;;;;;;;1.85;0.50;;;;;;;27.55;39.46;100334.63;4721593;30;20059;-80
2022/09/10 16:39:13;;;;;;;1.40;0.50;;;;;;;27.61;39.84;100338.44;4721194;30;20059;-80
2022/09/10 16:41:58;;;;;;;3.10;0.70;;;;;;;27.60;39.74;100334.06;4734013;30;20064;-80
2022/09/10 16:44:43;;;;;;;1.60;0.50;;;;;;;27.60;39.56;100339.66;4722159;30;20060;-80
2022/09/10 16:47:27;;;;;;;0.98;0.40;;;;;;;27.53;39.67;100335.03;4723502;30;20052;-80
2022/09/10 16:50:13;;;;;;;1.38;0.30;;;;;;;27.57;39.73;100338.53;4733626;30;20070;-80
2022/09/10 16:52:58;;;;;;;2.17;0.40;;;;;;;27.54;39.79;100342.22;4731782;30;20067;-79
2022/09/10 16:55:43;;;;;;;2.25;0.30;;;;;;;27.52;40.29;100335.50;4717570;30;20059;-79
2022/09/10 16:58:28;;;;;;;0.77;0.40;;;;;;;27.46;40.40;100335.22;4732742;30;20060;-79
2022/09/10 17:01:14;;;;;;;1.02;0.28;;;;;;;27.45;40.37;100338.44;4726541;30;20051;-80
2022/09/10 17:04:01;;;;;;;2.70;0.50;;;;;;;27.36;40.63;100339.09;4734736;30;20548;-80
2022/09/10 17:06:46;;;;;;;1.15;0.50;;;;;;;27.35;40.24;100347.88;4723620;30;20425;-82
2022/09/10 17:09:30;;;;;;;2.72;0.60;;;;;;;27.34;40.89;100335.16;4717275;30;20444;-81
2022/09/10 17:12:15;;;;;;;2.25;0.70;;;;;;;27.36;40.82;100339.09;4727667;30;20071;-78
2022/09/10 17:15:00;;;;;;;3.80;1.10;;;;;;;27.35;41.55;100348.69;4720241;30;20048;-79
2022/09/10 17:17:45;;;;;;;5.57;1.08;;;;;;;27.40;41.71;100348.16;4722184;30;20052;-78
2022/09/10 17:20:29;;;;;;;4.60;0.80;;;;;;;27.38;43.01;100344.25;4715977;30;20064;-78
2022/09/10 17:23:17;;;;;;;4.22;0.75;;;;;;;27.36;43.67;100352.25;4716903;30;20060;-79
2022/09/10 17:26:07;;;;;;;4.78;1.02;;;;;;;27.36;44.50;100347.47;4736146;30;20064;-78
2022/09/10 17:29:01;;;;;;;5.03;1.00;;;;;;;27.36;45.84;100346.66;4722834;30;20056;-80
2022/09/10 17:31:47;;;;;;;5.95;1.63;;;;;;;27.26;46.97;100353.31;4743288;30;20624;-79
2022/09/10 17:34:32;;;;;;;3.28;0.98;;;;;;;27.21;47.49;100349.06;4745790;30;20420;-80
2022/09/10 17:37:18;;;;;;;7.93;1.75;;;;;;;27.12;47.82;100349.66;4730140;30;20061;-79
2022/09/10 17:40:04;;;;;;;4.43;1.05;;;;;;;27.13;48.53;100356.00;4735626;30;20060;-79
2022/09/10 17:42:49;;;;;;;6.93;1.73;;;;;;;27.11;48.98;100364.84;4723307;30;20075;-79
2022/09/10 17:45:35;;;;;;;8.80;1.77;;;;;;;27.12;49.27;100360.06;4723510;30;20056;-79
2022/09/10 17:48:21;;;;;;;8.30;2.38;;;;;;;27.03;49.71;100369.03;4722781;30;20149;-80
2022/09/10 17:51:06;;;;;;;11.13;2.53;;;;;;;26.97;50.28;100362.38;4719148;30;20060;-79
2022/09/10 17:53:54;;;;;;;6.68;2.33;;;;;;;26.96;50.60;100360.84;4729214;30;20265;-78
2022/09/10 17:56:40;;;;;;;11.25;1.40;;;;;;;26.87;50.75;100376.63;4743189;30;20056;-78
2022/09/10 17:59:26;;;;;;;9.02;1.73;;;;;;;26.88;51.51;100367.78;4732619;30;20044;-78
2022/09/10 18:02:13;;;;;;;4.53;0.95;;;;;;;26.79;52.01;100370.38;4742321;30;20074;-78
2022/09/10 18:04:57;;;;;;;4.10;1.63;;;;;;;26.69;52.63;100371.41;4724491;30;20044;-78
2022/09/10 18:07:43;;;;;;;4.25;0.77;;;;;;;26.57;52.84;100369.28;4737415;30;20060;-78
2022/09/10 18:10:28;;;;;;;3.83;1.02;;;;;;;26.47;53.13;100373.09;4716750;30;20529;-78
2022/09/10 18:13:13;;;;;;;3.58;1.05;;;;;;;26.38;53.13;100376.47;4727825;30;20060;-77
2022/09/10 18:15:58;;;;;;;7.45;1.60;;;;;;;26.23;53.44;100373.19;4742850;30;20048;-78
2022/09/10 18:18:44;;;;;;;2.47;0.68;;;;;;;26.17;53.44;100383.25;4735120;30;20349;-78
2022/09/10 18:21:31;;;;;;;4.88;1.45;;;;;;;26.07;53.95;100381.47;4717492;30;20051;-78
2022/09/10 18:24:22;;;;;;;1.40;0.60;;;;;;;25.95;54.03;100387.69;4729894;30;20060;-77
2022/09/10 18:27:07;;;;;;;3.05;0.60;;;;;;;25.88;54.10;100382.25;4715437;30;20068;-78
2022/09/10 18:29:52;;;;;;;6.40;0.75;;;;;;;25.87;54.12;100391.81;4716252;30;20079;-77
2022/09/10 18:32:36;;;;;;;;;;;;;;;25.84;53.71;100399.03;4721302;30;20052;-77
2022/09/10 18:35:20;;;;;;;2.70;0.60;;;;;;;25.75;53.42;100396.00;4715038;30;19918;-78
2022/09/10 18:38:05;;;;;;;;;;;;;;;25.82;53.13;100395.88;4721362;30;20089;-77
2022/09/10 18:40:49;;;;;;;2.72;0.70;;;;;;;25.81;52.93;100408.25;4712212;30;19930;-78
2022/09/10 18:43:36;;;;;;;4.97;0.60;;;;;;;25.86;52.55;100406.97;4717353;30;20052;-77
2022/09/10 18:46:22;;;;;;;3.03;0.80;;;;;;;25.81;52.73;100408.25;4724248;30;20052;-77
2022/09/10 18:49:07;;;;;;;2.65;0.85;;;;;;;25.75;52.71;100415.50;4729292;30;20056;-77
2022/09/10 18:51:54;;;;;;;3.35;1.02;;;;;;;25.66;53.12;100411.72;4721137;30;20064;-77
2022/09/10 18:54:40;;;;;;;1.77;0.80;;;;;;;25.47;53.56;100422.34;4721948;30;20434;-77
2022/09/10 18:57:24;;;;;;;1.88;0.65;;;;;;;25.36;53.68;100423.72;4717066;30;20130;-77
2022/09/10 19:00:10;;;;;;;3.45;1.27;;;;;;;25.32;53.46;100432.16;4727337;30;20451;-79
2022/09/10 19:02:55;;;;;;;5.82;1.50;;;;;;;25.27;53.42;100432.63;4745032;30;20060;-79
2022/09/10 19:05:40;;;;;;;10.02;1.77;;;;;;;25.22;53.29;100437.88;4729511;30;20524;-79
2022/09/10 19:08:24;;;;;;;;;;;;;;;25.25;53.24;100448.97;4722505;30;20425;-82
2022/09/10 19:11:09;;;;;;;6.90;1.93;;;;;;;25.20;53.40;100449.44;4723813;30;19919;-83
2022/09/10 19:13:55;;;;;;;5.57;2.05;;;;;;;25.13;53.62;100453.13;4720737;30;20056;-82
2022/09/10 19:16:40;;;;;;;6.90;2.00;;;;;;;25.04;53.64;100452.09;4740890;30;20048;-82
2022/09/10 19:19:27;;;;;;;15.18;2.03;;;;;;;25.08;53.58;100450.03;4726722;30;20056;-82
2022/09/10 19:22:12;;;;;;;5.25;1.67;;;;;;;25.03;53.86;100454.09;4740240;30;20053;-81
2022/09/10 19:24:57;;;;;;;4.07;1.52;;;;;;;25.00;53.88;100454.09;4748292;30;20055;-81
2022/09/10 19:27:43;;;;;;;6.32;1.73;;;;;;;24.99;54.08;100463.69;4725111;30;20055;-79
2022/09/10 19:30:28;;;;;;;6.43;1.42;;;;;;;24.96;54.02;100456.94;4733157;30;20060;-79
2022/09/10 19:33:15;;;;;;;5.18;1.67;;;;;;;24.97;53.98;100455.75;4734294;30;20130;-79
2022/09/10 19:36:02;;;;;;;5.97;2.10;;;;;;;24.98;53.83;100459.31;4731496;30;20060;-79
2022/09/10 19:38:47;;;;;;;8.52;2.42;;;;;;;24.92;54.01;100464.56;4725720;30;20060;-80
2022/09/10 19:41:34;;;;;;;8.93;2.67;;;;;;;24.92;53.86;100461.00;4737110;30;20063;-79
2022/09/10 19:44:19;;;;;;;4.60;2.30;;;;;;;24.92;53.86;100469.34;4728974;30;20068;-78
2022/09/10 19:47:04;;;;;;;5.38;2.30;;;;;;;24.91;53.91;100462.19;4741826;30;20064;-79
2022/09/10 19:49:50;;;;;;;9.30;1.90;;;;;;;24.93;54.05;100460.59;4720105;30;20072;-78
2022/09/10 19:52:35;;;;;;;4.10;2.38;;;;;;;24.92;54.00;100470.13;4726368;30;20060;-79
2022/09/10 19:55:21;;;;;;;6.85;2.05;;;;;;;24.95;54.01;100460.16;4735323;30;20532;-79
2022/09/10 19:58:06;;;;;;;5.30;1.52;;;;;;;24.97;53.73;100471.66;4732815;30;20064;-80
2022/09/10 20:00:50;;;;;;;8.43;2.10;;;;;;;24.92;53.63;100475.69;4729449;30;20056;-79
2022/09/10 20:03:36;;;;;;;4.85;1.67;;;;;;;24.88;53.58;100480.53;4737907;30;20064;-80
2022/09/10 20:06:24;;;;;;;5.38;2.20;;;;;;;24.90;53.71;100486.44;4725238;30;20044;-79
2022/09/10 20:09:09;;;;;;;9.05;2.08;;;;;;;24.89;53.83;100481.31;4727254;30;20060;-80
2022/09/10 20:11:54;;;;;;;7.20;2.05;;;;;;;24.85;53.85;100489.66;4726767;30;20056;-79
2022/09/10 20:14:38;;;;;;;;;;;;;;;24.87;53.77;100490.06;4728016;30;20074;-81
2022/09/10 20:17:22;;;;;;;6.88;1.67;;;;;;;24.77;53.77;100479.06;4728813;30;19922;-80
2022/09/10 20:20:08;;;;;;;5.25;1.90;;;;;;;24.77;53.69;100493.75;4721879;30;20080;-80
2022/09/10 20:22:57;;;;;;;8.05;2.60;;;;;;;24.78;53.55;100491.75;4720203;30;20071;-79
2022/09/10 20:25:42;;;;;;;5.45;1.80;;;;;;;24.79;53.74;100496.13;4736874;30;20056;-79
2022/09/10 20:28:27;;;;;;;8.38;2.38;;;;;;;24.77;53.63;100487.41;4738565;30;20060;-79
2022/09/10 20:31:11;;;;;;;2.75;1.52;;;;;;;24.75;53.72;100487.00;4719348;30;20080;-79
2022/09/10 20:34:02;;;;;;;3.05;1.38;;;;;;;24.69;53.54;100484.69;4734909;30;20056;-78